Frontenac, Minnesota
Current Conditions -  °F | °C
As of 6:11 PM on Saturday 25 Oct 2014 (Local Time) from KRGK Reporting Station
Clear Clear  
Wind Chill: 57°   Ceiling: Unl
Heat Index: 57°   Visibility: 10mi
Dew Point: 25°   Wind: 6mph
Humidity: 29%   Direction: 300°WNW
Pressure: 30.01"   Gusts: NA
Location:  44.51°N, 92.36°W
Report Text: KRGK 252311Z AUTO 30005KT 10SM CLR 14/M04 A3001 RMK AO2
Loading
Personal Weather Stations






























Interactive Weather Map
Tropical Storm Tracking
New forecast layout! Learn more

10-Day Weather Forecast

Advertisements
Track Severe Weather on mobile